Time;durP1;ratioP1;P1;durP2;ratioP2;P2;SDS_P1;SDS_P2;PMS_P1;PMS_P2;Temp;Humidity;BMP_temperature;BMP_pressure;BME280_temperature;BME280_humidity;BME280_pressure;Samples;Min_cycle;Max_cycle;Signal;HPM_P1;HPM_P2
2022/09/28 00:01:12;;;;;;;;;1.00;1.00;;;;;15.13;69.65;99499.25;5029813;28;45319;-67
2022/09/28 00:03:37;;;;;;;;;1.00;1.00;;;;;15.17;70.05;99513.88;5064791;28;45313;-68
2022/09/28 00:06:05;;;;;;;;;1.00;1.00;;;;;15.11;69.90;99502.13;5055726;28;45404;-67
2022/09/28 00:08:32;;;;;;;;;1.00;1.00;;;;;15.04;70.40;99495.94;5064541;28;46578;-68
2022/09/28 00:10:58;;;;;;;;;1.00;1.00;;;;;15.14;70.05;99499.03;5064335;28;45411;-67
2022/09/28 00:13:23;;;;;;;;;1.00;1.00;;;;;14.76;69.73;99442.56;5070119;28;45332;-66
2022/09/28 00:16:06;;;;;;;;;5.00;1.33;;;;;15.18;69.35;99516.34;5057514;28;45232;-68
2022/09/28 00:18:32;;;;;;;;;7.00;5.67;;;;;15.04;68.59;99487.09;5063432;28;45865;-66
2022/09/28 00:21:08;;;;;;;;;4.67;3.00;;;;;15.19;68.86;99509.13;5065311;28;45253;-67
2022/09/28 00:24:11;;;;;;;;;1.00;1.00;;;;;15.10;68.21;99496.97;5064763;28;45466;-66
2022/09/28 00:26:20;;;;;;;;;1.00;1.00;;;;;15.11;68.10;99495.94;5056775;28;45151;-66
2022/09/28 00:28:46;;;;;;;;;2.33;1.00;;;;;15.09;67.50;99498.00;5066609;28;45651;-67
2022/09/28 00:31:11;;;;;;;;;3.00;1.67;;;;;15.03;67.29;99490.81;5062916;28;56818;-67
2022/09/28 00:33:39;;;;;;;;;0.67;0.67;;;;;15.11;66.84;99509.34;5063091;28;45565;-67
2022/09/28 00:36:05;;;;;;;;;0.67;0.67;;;;;14.86;66.77;99466.28;5072638;28;45241;-66
2022/09/28 00:38:30;;;;;;;;;1.00;1.00;;;;;14.95;67.10;99486.44;5066204;28;47441;-67
2022/09/28 00:40:56;;;;;;;;;1.00;1.00;;;;;14.89;66.90;99485.41;5064848;28;45664;-67
2022/09/28 00:43:23;;;;;;;;;1.00;1.00;;;;;14.95;67.02;99491.78;5069179;28;45626;-67
2022/09/28 00:45:59;;;;;;;;;1.33;1.00;;;;;14.56;66.56;99428.31;5067656;28;45510;-69
2022/09/28 00:48:28;;;;;;;;;2.00;1.00;;;;;14.90;66.94;99487.06;5066906;28;45662;-67
2022/09/28 00:50:54;;;;;;;;;2.33;1.33;;;;;14.78;66.30;99467.25;5075642;28;45362;-67
2022/09/28 00:53:25;;;;;;;;;1.00;1.00;;;;;14.83;66.78;99483.56;5066568;28;45434;-67
2022/09/28 00:55:56;;;;;;;;;1.00;0.00;;;;;14.92;66.31;99500.22;5068262;28;45190;-68
2022/09/28 00:58:32;;;;;;;;;0.33;0.33;;;;;14.93;66.05;99496.53;5060010;28;45952;-67
2022/09/28 01:00:58;;;;;;;;;0.67;0.67;;;;;14.88;66.07;99491.78;5066675;28;45552;-66
2022/09/28 01:03:25;;;;;;;;;1.67;1.33;;;;;14.86;65.97;99493.03;5042204;28;45417;-66
2022/09/28 01:05:52;;;;;;;;;2.00;1.00;;;;;14.85;66.36;99489.53;5039178;28;45502;-67
2022/09/28 01:08:20;;;;;;;;;1.67;1.33;;;;;14.86;66.08;99503.72;5038652;28;46582;-66
2022/09/28 01:10:47;;;;;;;;;2.00;0.67;;;;;14.82;66.91;99497.97;5043003;28;45770;-68
2022/09/28 01:13:15;;;;;;;;;0.67;0.67;;;;;14.83;67.07;99499.59;5038912;28;45470;-66
2022/09/28 01:15:58;;;;;;;;;1.00;1.00;;;;;14.71;67.60;99474.47;5039515;28;45414;-67
2022/09/28 01:18:58;;;;;;;;;0.33;0.33;;;;;14.87;67.39;99492.00;5053042;28;47012;-67
2022/09/28 01:21:24;;;;;;;;;1.00;1.00;;;;;14.82;67.60;99489.94;5038586;28;45533;-67
2022/09/28 01:23:53;;;;;;;;;1.00;0.67;;;;;14.87;67.57;99500.84;5038830;28;45376;-67
2022/09/28 01:26:37;;;;;;;;;1.33;1.00;;;;;14.71;67.87;99463.75;5038777;28;45471;-67
2022/09/28 01:29:46;;;;;;;;;0.67;0.67;;;;;14.80;67.94;99469.72;5038561;28;46606;-66
2022/09/28 01:32:19;;;;;;;;;1.00;0.67;;;;;14.79;68.08;99474.25;4945457;28;46527;-68
2022/09/28 01:34:56;;;;;;;;;2.33;1.00;;;;;14.85;68.10;99484.19;5025117;28;45430;-66
2022/09/28 01:37:29;;;;;;;;;3.33;1.33;;;;;14.79;68.51;99478.78;5038392;28;45545;-66
2022/09/28 01:39:57;;;;;;;;;1.00;1.00;;;;;14.79;68.59;99487.63;5038171;28;45864;-67
2022/09/28 01:42:28;;;;;;;;;1.33;1.33;;;;;14.79;68.82;99482.28;5036915;28;45305;-68
2022/09/28 01:45:01;;;;;;;;;2.33;0.00;;;;;14.20;68.63;99385.81;5035542;28;45543;-67
2022/09/28 01:47:32;;;;;;;;;0.33;0.33;;;;;14.85;68.93;99481.50;5038282;28;45155;-67
2022/09/28 01:50:06;;;;;;;;;2.33;2.00;;;;;14.78;69.02;99459.22;5031963;28;45798;-66
2022/09/28 01:52:43;;;;;;;;;1.67;1.67;;;;;14.89;68.89;99476.56;5037938;28;45316;-67
2022/09/28 01:55:15;;;;;;;;;0.33;0.33;;;;;14.68;69.25;99436.59;5038379;28;45343;-67
2022/09/28 01:57:54;;;;;;;;;2.00;0.00;;;;;14.85;69.06;99465.44;5038459;28;45429;-65
2022/09/28 02:00:22;;;;;;;;;0.33;0.33;;;;;14.79;68.60;99457.38;5037964;28;46045;-67
2022/09/28 02:03:06;;;;;;;;;1.00;1.00;;;;;14.88;69.29;99465.03;5050870;28;45235;-66
2022/09/28 02:05:38;;;;;;;;;2.67;1.33;;;;;14.72;69.12;99444.00;5074410;28;45334;-66
2022/09/28 02:08:06;;;;;;;;;1.00;1.00;;;;;14.85;68.89;99470.78;5074366;28;45591;-66
2022/09/28 02:10:44;;;;;;;;;2.33;0.67;;;;;14.70;68.62;99432.69;5066141;28;46787;-66
2022/09/28 02:13:39;;;;;;;;;3.00;2.00;;;;;14.20;68.71;99359.88;5065483;28;45366;-66
2022/09/28 02:16:07;;;;;;;;;1.67;1.33;;;;;14.83;68.60;99462.16;5061369;28;45291;-65
2022/09/28 02:18:33;;;;;;;;;1.67;0.67;;;;;14.70;68.81;99451.41;5069546;28;45634;-74
2022/09/28 02:21:07;;;;;;;;;1.33;0.33;;;;;14.72;68.62;99457.38;5058158;28;46444;-67
2022/09/28 02:23:36;;;;;;;;;1.00;0.00;;;;;14.57;68.76;99440.66;5065105;28;45491;-66
2022/09/28 02:26:07;;;;;;;;;1.67;1.00;;;;;14.65;68.58;99447.69;5064624;28;45455;-67
2022/09/28 02:28:32;;;;;;;;;2.67;1.00;;;;;14.65;68.50;99456.53;5073209;28;45316;-67
2022/09/28 02:30:58;;;;;;;;;3.33;1.67;;;;;14.67;68.75;99456.34;5066376;28;45911;-66
2022/09/28 02:33:27;;;;;;;;;2.33;1.00;;;;;14.65;68.81;99453.03;5070490;28;45472;-67
2022/09/28 02:35:52;;;;;;;;;1.67;0.67;;;;;14.63;68.60;99447.06;5067288;28;45520;-67
2022/09/28 02:38:17;;;;;;;;;3.33;2.00;;;;;14.12;68.37;99357.41;5065712;28;45332;-67
2022/09/28 02:40:54;;;;;;;;;1.00;1.00;;;;;14.65;68.50;99453.88;5057664;28;46446;-67
2022/09/28 02:43:26;;;;;;;;;1.00;1.00;;;;;14.67;68.22;99457.16;5058112;28;45594;-65
2022/09/28 02:46:03;;;;;;;;;1.67;1.33;;;;;14.68;68.14;99464.16;5066638;28;45285;-68
2022/09/28 02:48:52;;;;;;;;;0.67;0.67;;;;;14.68;68.20;99453.47;5069335;28;45524;-67
2022/09/28 02:51:49;;;;;;;;;1.00;1.00;;;;;14.57;68.33;99441.47;5077564;28;46358;-66
2022/09/28 02:55:03;;;;;;;;;1.67;0.67;;;;;14.66;67.87;99444.81;5054633;27;45499;-66
2022/09/28 02:57:47;;;;;;;;;2.00;1.67;;;;;14.65;68.13;99453.03;5056382;28;45407;-67
2022/09/28 03:00:18;;;;;;;;;1.67;1.67;;;;;14.03;67.71;99363.97;5065648;28;45683;-67
2022/09/28 03:03:06;;;;;;;;;0.33;0.33;;;;;14.64;67.79;99457.56;5071451;28;45714;-67
2022/09/28 03:05:46;;;;;;;;;2.00;2.00;;;;;14.19;68.39;99384.97;5058658;28;45408;-66
2022/09/28 03:08:24;;;;;;;;;0.33;0.33;;;;;14.66;67.54;99460.03;5065310;28;45309;-66
2022/09/28 03:10:57;;;;;;;;;2.67;1.67;;;;;14.23;67.35;99388.91;5064973;28;45248;-66
2022/09/28 03:13:24;;;;;;;;;1.33;1.33;;;;;14.59;67.42;99450.13;5059977;28;46694;-66
2022/09/28 03:15:50;;;;;;;;;2.67;0.67;;;;;14.57;67.25;99454.84;5068332;28;45286;-67
2022/09/28 03:18:16;;;;;;;;;2.33;1.00;;;;;14.47;67.26;99443.72;5056476;28;46014;-67
2022/09/28 03:20:41;;;;;;;;;1.00;1.00;;;;;14.51;67.32;99450.31;5062307;28;45467;-67
2022/09/28 03:23:06;;;;;;;;;1.00;1.00;;;;;14.52;67.48;99453.81;5067943;28;46464;-68
2022/09/28 03:25:32;;;;;;;;;0.67;0.67;;;;;14.39;67.18;99427.00;5065147;28;45423;-67
2022/09/28 03:27:57;;;;;;;;;1.00;1.00;;;;;14.52;67.59;99459.16;5056706;28;45349;-66
2022/09/28 03:30:22;;;;;;;;;2.00;2.00;;;;;14.50;67.57;99458.53;5065733;28;45528;-66
2022/09/28 03:32:59;;;;;;;;;0.67;0.67;;;;;14.40;67.74;99442.00;5070231;28;45457;-65
2022/09/28 03:35:24;;;;;;;;;2.00;1.00;;;;;14.45;68.05;99459.16;5074547;28;45503;-66
2022/09/28 03:37:53;;;;;;;;;2.33;0.33;;;;;14.36;68.00;99451.47;5065125;28;45450;-67
2022/09/28 03:40:19;;;;;;;;;2.00;1.00;;;;;14.40;67.87;99455.38;5065455;28;45376;-68
2022/09/28 03:42:44;;;;;;;;;1.00;1.00;;;;;14.39;67.95;99459.09;5076526;28;46862;-67
2022/09/28 03:45:10;;;;;;;;;4.00;1.33;;;;;14.45;67.99;99474.38;5067630;28;45276;-66
2022/09/28 03:47:35;;;;;;;;;5.67;3.67;;;;;14.15;67.96;99420.31;5065762;28;45311;-67
2022/09/28 03:50:01;;;;;;;;;2.67;2.67;;;;;14.42;67.98;99472.06;5062156;28;51204;-65
2022/09/28 03:52:26;;;;;;;;;3.33;1.67;;;;;14.25;68.09;99452.88;5059685;28;46426;-67
2022/09/28 03:54:51;;;;;;;;;1.67;0.00;;;;;14.38;68.05;99476.16;5075083;28;45459;-67
2022/09/28 03:57:16;;;;;;;;;1.67;1.33;;;;;14.34;67.78;99478.41;5076345;27;45425;-66
2022/09/28 03:59:42;;;;;;;;;0.67;0.67;;;;;14.22;67.85;99467.47;5059884;28;45506;-66
2022/09/28 04:02:07;;;;;;;;;4.00;2.33;;;;;14.15;68.00;99466.59;5067315;28;52446;-67
2022/09/28 04:04:32;;;;;;;;;1.67;1.67;;;;;14.23;68.39;99474.47;5035779;28;45431;-67
2022/09/28 04:06:58;;;;;;;;;2.33;2.33;;;;;14.20;68.33;99474.00;5035611;28;45852;-67
2022/09/28 04:09:23;;;;;;;;;2.00;2.00;;;;;13.88;68.07;99422.88;5022338;28;45328;-67
2022/09/28 04:11:49;;;;;;;;;1.33;1.33;;;;;14.09;68.39;99458.53;5050056;28;62516;-66
2022/09/28 04:14:14;;;;;;;;;1.67;1.67;;;;;14.24;68.37;99481.47;5035484;28;45331;-67
2022/09/28 04:16:39;;;;;;;;;3.00;2.67;;;;;14.27;68.37;99489.06;5035796;28;45381;-66
2022/09/28 04:19:05;;;;;;;;;2.67;2.00;;;;;14.12;68.52;99463.50;5035625;28;59170;-66
2022/09/28 04:21:30;;;;;;;;;1.00;1.00;;;;;14.16;68.55;99468.25;5035869;28;46511;-66
2022/09/28 04:23:58;;;;;;;;;1.67;1.67;;;;;13.68;68.64;99398.72;5035663;28;45420;-66
2022/09/28 04:26:25;;;;;;;;;1.67;1.67;;;;;14.24;68.37;99488.66;5035826;28;45374;-67
2022/09/28 04:31:41;;;;;;;;;3.67;1.67;;;;;14.24;68.62;99492.16;5035600;28;45807;-67
2022/09/28 04:34:06;;;;;;;;;6.33;4.67;;;;;14.30;68.56;99503.88;5027934;28;45294;-67
2022/09/28 04:36:31;;;;;;;;;4.33;3.00;;;;;14.31;68.51;99493.00;5035866;28;45171;-67
2022/09/28 04:38:57;;;;;;;;;0.67;0.67;;;;;14.35;68.35;99496.09;5036289;28;52182;-68
2022/09/28 04:41:22;;;;;;;;;0.67;0.00;;;;;14.27;67.86;99489.06;5039125;28;46540;-67
2022/09/28 04:43:48;;;;;;;;;2.00;2.00;;;;;14.36;68.06;99512.97;5039241;28;45245;-66
2022/09/28 04:46:14;;;;;;;;;5.00;3.00;;;;;14.34;68.42;99515.00;5046118;28;45289;-66
2022/09/28 04:48:39;;;;;;;;;3.33;1.67;;;;;14.22;68.14;99486.19;5039326;28;45179;-67
2022/09/28 04:51:04;;;;;;;;;3.00;2.00;;;;;14.12;68.44;99476.84;5038863;28;46224;-67
2022/09/28 04:53:30;;;;;;;;;1.00;1.00;;;;;14.31;68.21;99511.72;5039101;28;45297;-67
2022/09/28 04:56:04;;;;;;;;;3.00;0.67;;;;;14.34;68.28;99520.34;5038653;28;45211;-66
2022/09/28 04:58:30;;;;;;;;;0.67;0.67;;;;;14.06;68.39;99459.78;5039377;28;45814;-66
2022/09/28 05:00:58;;;;;;;;;0.33;0.33;;;;;14.26;67.68;99491.94;5038739;28;46486;-67
2022/09/28 05:03:23;;;;;;;;;5.00;4.33;;;;;14.38;68.27;99516.25;5060051;28;45419;-67
2022/09/28 05:05:49;;;;;;;;;5.67;3.33;;;;;14.37;68.40;99502.06;5067269;28;45457;-68
2022/09/28 05:08:15;;;;;;;;;1.67;1.67;;;;;14.38;67.91;99513.59;5062009;28;45378;-67
2022/09/28 05:10:41;;;;;;;;;4.00;3.00;;;;;14.39;67.99;99512.56;5070807;28;47743;-66
2022/09/28 05:13:07;;;;;;;;;5.00;2.33;;;;;12.28;68.06;99159.72;5063238;28;45856;-68
2022/09/28 05:15:34;;;;;;;;;5.00;4.00;;;;;14.29;68.14;99487.03;5071250;28;45451;-67
2022/09/28 05:17:59;;;;;;;;;2.67;1.67;;;;;14.00;67.65;99434.66;5067494;28;45497;-69
2022/09/28 05:20:24;;;;;;;;;3.67;3.67;;;;;14.37;68.24;99493.22;5070233;28;45799;-67
2022/09/28 05:22:50;;;;;;;;;2.67;2.67;;;;;14.15;67.66;99447.88;5063785;28;45478;-67
2022/09/28 05:25:15;;;;;;;;;1.33;0.67;;;;;14.42;67.65;99506.84;5066794;28;45695;-68
2022/09/28 05:27:41;;;;;;;;;7.00;7.00;;;;;14.13;68.01;99443.75;5063316;28;45177;-67
2022/09/28 05:30:07;;;;;;;;;4.33;4.33;;;;;14.38;67.51;99484.16;5061559;28;46230;-69
2022/09/28 05:32:32;;;;;;;;;4.33;3.33;;;;;14.20;67.10;99466.81;5058958;28;45509;-68
2022/09/28 05:35:00;;;;;;;;;3.00;3.00;;;;;14.23;66.98;99474.47;5069829;28;45447;-67
2022/09/28 05:37:25;;;;;;;;;4.33;3.33;;;;;14.32;67.10;99497.31;5059240;28;45353;-69
2022/09/28 05:39:50;;;;;;;;;7.33;2.67;;;;;14.37;67.25;99499.38;5064940;28;47331;-68
2022/09/28 05:42:16;;;;;;;;;3.33;3.33;;;;;14.33;67.15;99503.50;5066199;28;45316;-68
2022/09/28 05:44:41;;;;;;;;;6.33;6.33;;;;;14.39;67.42;99512.56;5061058;28;45349;-67
2022/09/28 05:47:07;;;;;;;;;2.67;2.67;;;;;13.83;67.20;99416.50;5069460;28;45482;-67
2022/09/28 05:49:32;;;;;;;;;3.67;2.67;;;;;14.21;67.07;99478.31;5069340;28;45490;-67
2022/09/28 05:51:57;;;;;;;;;3.33;3.33;;;;;14.41;66.69;99518.53;5063821;28;45178;-68
2022/09/28 05:54:23;;;;;;;;;2.33;1.33;;;;;14.37;66.53;99509.25;5067297;28;45462;-68
2022/09/28 05:56:48;;;;;;;;;5.00;3.67;;;;;14.42;66.46;99518.34;5065118;28;53530;-69
2022/09/28 05:59:14;;;;;;;;;3.33;3.33;;;;;14.36;66.46;99508.44;5057544;28;45602;-68
2022/09/28 06:01:39;;;;;;;;;4.33;2.00;;;;;13.72;66.39;99398.34;5068470;28;45273;-68
2022/09/28 06:04:05;;;;;;;;;2.67;2.67;;;;;13.89;66.22;99432.53;5063986;28;46120;-67
2022/09/28 06:06:30;;;;;;;;;7.00;4.00;;;;;14.34;66.05;99510.47;5073844;27;45334;-69
2022/09/28 06:08:55;;;;;;;;;5.67;4.00;;;;;14.52;66.41;99534.06;5041666;28;47835;-70
2022/09/28 06:11:24;;;;;;;;;2.33;2.33;;;;;14.51;65.61;99532.41;5047825;28;50603;-72
2022/09/28 06:13:53;;;;;;;;;11.33;9.00;;;;;14.53;65.96;99525.00;5068550;28;45532;-74
2022/09/28 06:16:19;;;;;;;;;4.67;4.67;;;;;14.57;66.05;99518.22;5072387;28;45158;-68
2022/09/28 06:18:44;;;;;;;;;7.33;4.33;;;;;14.58;65.96;99522.56;5061578;28;45331;-68
2022/09/28 06:21:11;;;;;;;;;5.00;2.67;;;;;14.59;66.04;99518.84;5065804;28;46183;-67
2022/09/28 06:23:37;;;;;;;;;5.00;5.00;;;;;14.58;65.76;99511.84;5061205;28;45341;-69
2022/09/28 06:26:03;;;;;;;;;2.67;2.67;;;;;14.59;64.99;99513.50;5073825;28;45472;-69
2022/09/28 06:28:28;;;;;;;;;2.67;2.67;;;;;14.70;65.28;99531.66;5066286;28;45830;-68
2022/09/28 06:30:53;;;;;;;;;3.33;3.33;;;;;14.69;64.61;99535.38;5061469;28;45470;-67
2022/09/28 06:33:19;;;;;;;;;3.33;3.33;;;;;14.64;64.49;99535.16;5069668;28;45549;-69
2022/09/28 06:35:44;;;;;;;;;2.33;2.33;;;;;14.56;64.51;99529.94;5069355;28;45296;-67
2022/09/28 06:38:10;;;;;;;;;7.00;7.00;;;;;14.67;64.98;99537.41;5045968;28;47978;-68
2022/09/28 06:40:36;;;;;;;;;7.33;3.67;;;;;14.55;64.64;99523.78;5072580;28;45396;-74
2022/09/28 06:43:09;;;;;;;;;3.00;3.00;;;;;14.75;64.71;99553.28;5064145;28;45233;-68
2022/09/28 06:45:35;;;;;;;;;4.33;3.00;;;;;14.55;65.13;99510.41;5072505;28;45295;-68
2022/09/28 06:48:01;;;;;;;;;3.00;3.00;;;;;14.84;64.99;99552.09;5066483;28;45836;-69
2022/09/28 06:50:32;;;;;;;;;7.33;7.33;;;;;14.87;64.27;99551.69;5065177;28;45322;-67
2022/09/28 06:52:59;;;;;;;;;4.00;3.00;;;;;14.94;64.32;99550.88;5065831;28;45555;-68
2022/09/28 06:55:25;;;;;;;;;4.33;3.67;;;;;15.03;64.50;99561.22;5067517;28;45262;-68
2022/09/28 06:58:04;;;;;;;;;4.33;4.33;;;;;15.14;64.29;99565.16;5074647;28;46344;-69
2022/09/28 07:00:33;;;;;;;;;4.00;3.33;;;;;15.12;63.54;99545.78;5067611;28;46013;-69
2022/09/28 07:03:02;;;;;;;;;2.67;2.67;;;;;15.40;63.02;99575.91;5067214;28;45528;-68
2022/09/28 07:05:28;;;;;;;;;6.33;5.00;;;;;15.34;62.72;99541.91;5063965;28;45236;-68
2022/09/28 07:07:55;;;;;;;;;4.67;4.33;;;;;15.67;62.65;99575.97;5056573;28;45667;-70
2022/09/28 07:10:26;;;;;;;;;8.33;5.00;;;;;15.67;62.18;99565.25;5053601;28;45343;-70
2022/09/28 07:12:52;;;;;;;;;4.00;2.67;;;;;15.76;61.01;99569.38;5071209;27;45393;-67
2022/09/28 07:15:19;;;;;;;;;4.67;3.00;;;;;15.77;60.81;99571.03;5064611;28;45366;-69
2022/09/28 07:17:45;;;;;;;;;13.00;10.67;;;;;15.90;60.96;99581.75;5054336;28;45896;-70
2022/09/28 07:20:10;;;;;;;;;6.33;5.00;;;;;15.95;60.64;99584.63;5055666;28;46175;-70
2022/09/28 07:22:37;;;;;;;;;3.67;3.67;;;;;15.77;60.62;99545.03;5054962;28;45386;-69
2022/09/28 07:25:04;;;;;;;;;4.00;4.00;;;;;15.89;60.14;99558.66;5070518;27;45510;-68
2022/09/28 07:27:29;;;;;;;;;3.00;3.00;;;;;16.04;59.48;99578.03;5056508;28;45778;-70
2022/09/28 07:29:55;;;;;;;;;4.67;3.00;;;;;16.13;59.25;99581.31;5071722;27;46619;-71
2022/09/28 07:32:21;;;;;;;;;3.67;3.67;;;;;16.12;58.92;99585.84;5078987;27;45556;-69
2022/09/28 07:34:47;;;;;;;;;3.33;3.00;;;;;16.17;58.57;99587.09;5057011;27;45536;-69
2022/09/28 07:37:14;;;;;;;;;5.33;4.00;;;;;16.04;58.41;99564.63;5071240;28;48389;-70
2022/09/28 07:42:28;;;;;;;;;4.00;4.00;;;;;16.34;58.04;99599.84;5048967;28;45501;-69
2022/09/28 07:44:53;;;;;;;;;5.00;3.00;;;;;16.30;57.33;99579.84;5057068;28;45537;-69
2022/09/28 07:47:25;;;;;;;;;4.33;3.33;;;;;16.42;57.15;99590.78;5056217;28;46696;-69
2022/09/28 07:49:55;;;;;;;;;9.67;5.67;;;;;16.24;56.70;99540.47;5056358;28;45505;-69
2022/09/28 07:52:24;;;;;;;;;3.67;2.33;;;;;16.64;56.71;99605.56;5071999;28;45533;-69
2022/09/28 07:54:52;;;;;;;;;3.33;3.00;;;;;16.70;56.53;99604.75;5055524;28;45549;-69
2022/09/28 07:57:19;;;;;;;;;4.00;4.00;;;;;16.87;55.90;99615.03;5055766;28;46820;-70
2022/09/28 07:59:44;;;;;;;;;5.33;4.00;;;;;16.84;55.08;99602.03;5056118;28;45557;-69
2022/09/28 08:02:11;;;;;;;;;1.33;1.33;;;;;16.94;54.96;99618.50;5056291;28;45435;-70
2022/09/28 08:04:37;;;;;;;;;8.00;6.00;;;;;17.07;55.07;99609.56;5065022;28;45396;-68
2022/09/28 08:07:07;;;;;;;;;4.00;4.00;;;;;17.34;54.92;99628.00;5063275;28;47594;-74
2022/09/28 08:09:32;;;;;;;;;3.67;3.67;;;;;17.50;52.39;99594.44;5070814;28;45363;-69
2022/09/28 08:11:58;;;;;;;;;4.00;4.00;;;;;17.96;52.32;99622.88;5064349;28;45383;-70
2022/09/28 08:14:23;;;;;;;;;4.33;2.33;;;;;18.24;51.41;99609.00;5069946;28;45397;-69
2022/09/28 08:16:52;;;;;;;;;1.67;1.67;;;;;18.44;49.51;99604.25;5062790;28;49217;-69
2022/09/28 08:19:17;;;;;;;;;2.67;2.00;;;;;18.56;47.92;99620.44;5049326;28;45947;-70
2022/09/28 08:21:45;;;;;;;;;1.00;1.00;;;;;18.78;47.93;99604.72;5067667;28;45408;-68
2022/09/28 08:24:15;;;;;;;;;2.00;0.67;;;;;18.93;45.77;99621.31;5073065;28;45619;-68
2022/09/28 08:26:41;;;;;;;;;2.33;2.33;;;;;18.35;46.33;99551.75;5075278;28;45735;-70
2022/09/28 08:29:07;;;;;;;;;3.33;2.33;;;;;18.61;46.07;99617.91;5074210;28;45260;-70
2022/09/28 08:31:33;;;;;;;;;2.00;2.00;;;;;18.68;46.78;99617.88;5068114;28;45352;-69
2022/09/28 08:33:58;;;;;;;;;1.33;1.33;;;;;18.88;47.19;99625.75;5068230;28;45516;-69
2022/09/28 08:36:23;;;;;;;;;2.33;2.33;;;;;19.06;46.55;99625.72;5075468;28;46430;-69
2022/09/28 08:38:49;;;;;;;;;1.67;1.67;;;;;19.12;45.33;99624.81;5072883;28;45233;-69
2022/09/28 08:41:14;;;;;;;;;3.00;3.00;;;;;19.28;44.97;99629.56;5071033;28;45192;-71
2022/09/28 08:43:58;;;;;;;;;1.25;1.25;;;;;19.37;45.18;99630.06;5071567;27;45377;-69
2022/09/28 08:46:29;;;;;;;;;1.33;1.33;;;;;19.49;45.07;99636.34;5067980;28;47658;-69
2022/09/28 08:49:00;;;;;;;;;3.00;3.00;;;;;19.89;44.51;99635.78;5064285;28;45440;-68
2022/09/28 08:51:35;;;;;;;;;2.00;2.00;;;;;20.61;43.13;99637.25;5061133;28;45369;-69
2022/09/28 08:54:04;;;;;;;;;1.00;1.00;;;;;20.80;41.42;99632.53;5059613;28;45282;-70
2022/09/28 08:56:48;;;;;;;;;3.00;3.00;;;;;20.68;42.07;99615.53;5066809;28;45585;-69
2022/09/28 08:59:19;;;;;;;;;6.00;6.00;;;;;20.81;41.30;99634.16;5067090;28;45525;-70
2022/09/28 09:02:02;;;;;;;;;3.25;3.00;;;;;20.79;41.64;99630.88;5070562;28;45515;-70
2022/09/28 09:04:28;;;;;;;;;1.33;1.33;;;;;20.86;41.35;99634.28;5070170;28;45291;-68
2022/09/28 09:07:16;;;;;;;;;4.67;3.00;;;;;20.67;40.54;99632.78;5064499;28;47607;-68
2022/09/28 09:10:01;;;;;;;;;2.67;1.00;;;;;20.49;40.96;99624.81;5058764;28;45221;-69
2022/09/28 09:12:39;;;;;;;;;2.00;2.00;;;;;20.41;41.22;99633.25;5067069;28;45569;-69
2022/09/28 09:15:30;;;;;;;;;4.00;4.00;;;;;20.36;41.14;99632.06;5064059;28;45540;-68
2022/09/28 09:17:58;;;;;;;;;1.50;1.50;;;;;20.32;41.27;99641.69;5062823;28;45412;-70
2022/09/28 09:20:51;;;;;;;;;8.33;8.00;;;;;20.28;41.85;99627.03;5069955;28;45415;-75
2022/09/28 09:23:27;;;;;;;;;5.00;3.00;;;;;19.95;40.85;99621.34;5062788;28;46454;-69
2022/09/28 09:26:02;;;;;;;;;2.00;2.00;;;;;19.31;41.09;99547.44;5058943;28;45456;-68
2022/09/28 09:28:37;;;;;;;;;6.33;4.33;;;;;20.03;41.71;99637.22;5057708;28;47932;-70
2022/09/28 09:31:05;;;;;;;;;6.33;3.00;;;;;20.16;41.06;99644.25;5069910;28;45483;-76
2022/09/28 09:33:42;;;;;;;;;0.50;0.50;;;;;19.96;39.74;99574.44;5068739;28;45530;-71
2022/09/28 09:36:41;;;;;;;;;2.00;2.00;;;;;20.74;39.60;99646.16;5077112;28;45428;-70
2022/09/28 09:39:06;;;;;;;;;4.00;2.00;;;;;21.26;38.29;99636.22;5076706;28;47348;-68
2022/09/28 09:41:40;;;;;;;;;2.00;2.00;;;;;21.30;38.13;99614.91;5069695;28;45405;-69
2022/09/28 09:44:14;;;;;;;;;4.33;2.67;;;;;20.79;38.49;99528.22;5060661;28;45403;-69
2022/09/28 09:47:06;;;;;;;;;3.00;3.00;;;;;20.86;37.98;99550.53;5068541;28;45209;-69
2022/09/28 09:49:48;;;;;;;;;5.33;3.00;;;;;21.46;38.25;99633.91;5061496;28;46805;-70
2022/09/28 09:52:25;;;;;;;;;2.00;2.00;;;;;21.58;38.03;99633.00;5066263;28;45482;-69
2022/09/28 09:54:56;;;;;;;;;2.75;2.75;;;;;21.59;37.70;99643.56;5068358;28;45477;-69
2022/09/28 09:57:28;;;;;;;;;2.00;2.00;;;;;21.52;38.13;99641.03;5077293;28;45458;-68
2022/09/28 09:59:57;;;;;;;;;2.00;2.00;;;;;21.53;38.10;99637.25;5066385;28;45564;-68
2022/09/28 10:02:42;;;;;;;;;4.00;2.00;;;;;21.39;38.17;99625.09;5061613;28;45447;-68
2022/09/28 10:05:11;;;;;;;;;3.67;3.67;;;;;21.24;38.06;99630.22;5030753;28;45484;-70
2022/09/28 10:07:52;;;;;;;;;3.00;3.00;;;;;21.12;38.35;99624.81;5045502;28;45488;-72
2022/09/28 10:10:23;;;;;;;;;3.00;3.00;;;;;20.98;38.43;99617.22;5031629;28;46600;-71
2022/09/28 10:12:50;;;;;;;;;4.00;3.00;;;;;20.80;39.12;99610.91;5037482;28;45578;-70
2022/09/28 10:15:22;;;;;;;;;4.00;4.00;;;;;20.87;39.03;99632.41;5037927;28;45515;-70
2022/09/28 10:17:47;;;;;;;;;6.33;4.00;;;;;20.60;38.99;99599.69;5037725;28;45451;-71
2022/09/28 10:20:15;;;;;;;;;4.67;4.67;;;;;20.64;39.00;99617.06;5034574;28;48317;-70
2022/09/28 10:22:41;;;;;;;;;4.00;2.33;;;;;20.50;39.20;99605.69;5036626;28;45266;-77
2022/09/28 10:25:08;;;;;;;;;5.67;2.33;;;;;20.49;39.49;99631.03;5039209;28;45562;-69
2022/09/28 10:27:38;;;;;;;;;3.00;2.00;;;;;20.32;40.17;99630.91;5040605;28;45671;-70
2022/09/28 10:30:07;;;;;;;;;3.33;3.33;;;;;20.01;39.91;99631.22;5036907;28;46057;-69
2022/09/28 10:32:38;;;;;;;;;3.00;2.00;;;;;19.69;40.46;99620.72;5036754;28;45364;-68
2022/09/28 10:35:18;;;;;;;;;5.00;3.00;;;;;19.65;40.79;99627.63;5037622;28;45571;-69
2022/09/28 10:37:46;;;;;;;;;5.33;5.33;;;;;19.54;40.04;99623.03;5036630;28;45303;-69
2022/09/28 10:40:28;;;;;;;;;5.67;3.67;;;;;17.83;40.31;99365.72;5037383;28;46140;-69
2022/09/28 10:43:07;;;;;;;;;8.67;6.67;;;;;19.22;40.74;99616.19;5037220;28;45471;-69
2022/09/28 10:45:36;;;;;;;;;7.00;5.00;;;;;18.84;41.61;99590.38;5037507;28;45284;-69
2022/09/28 10:48:15;;;;;;;;;3.00;3.00;;;;;19.09;42.17;99619.88;5045396;28;45333;-70
2022/09/28 10:50:41;;;;;;;;;2.00;2.00;;;;;19.05;42.16;99614.13;5036954;28;45750;-70
2022/09/28 10:53:16;;;;;;;;;6.67;5.00;;;;;19.05;42.17;99591.75;5037199;28;45379;-69
2022/09/28 10:55:54;;;;;;;;;12.00;10.00;;;;;18.96;41.97;99582.31;5037234;28;45266;-68
2022/09/28 10:58:44;;;;;;;;;4.67;4.00;;;;;19.23;41.91;99612.47;5038752;28;45502;-68
2022/09/28 11:01:15;;;;;;;;;5.67;5.67;;;;;19.27;41.89;99605.56;5036005;28;45961;-69
2022/09/28 11:04:01;;;;;;;;;5.00;4.00;;;;;19.38;41.69;99626.31;5036692;28;45617;-68
2022/09/28 11:06:38;;;;;;;;;3.33;2.33;;;;;19.40;42.07;99624.22;5030339;28;46271;-69
2022/09/28 11:09:25;;;;;;;;;3.67;2.33;;;;;19.24;41.24;99606.84;5036749;28;45672;-70
2022/09/28 11:11:51;;;;;;;;;6.00;6.00;;;;;18.46;41.42;99464.88;5040341;28;45767;-70
2022/09/28 11:14:22;;;;;;;;;6.00;3.67;;;;;19.45;41.15;99619.00;5037024;28;45635;-70
2022/09/28 11:16:47;;;;;;;;;4.33;3.33;;;;;19.37;40.42;99622.81;5041572;28;45569;-68
2022/09/28 11:19:19;;;;;;;;;3.67;3.67;;;;;19.37;41.20;99624.69;5038029;28;45335;-70
2022/09/28 11:21:47;;;;;;;;;2.67;2.67;;;;;19.34;41.33;99622.44;5036924;28;47555;-68
2022/09/28 11:24:23;;;;;;;;;5.33;4.33;;;;;19.30;40.95;99624.78;5036814;28;45278;-70
2022/09/28 11:26:58;;;;;;;;;3.00;3.00;;;;;19.32;41.51;99625.38;5037178;28;45440;-69
2022/09/28 11:29:40;;;;;;;;;4.33;3.00;;;;;18.91;41.11;99548.00;5036998;28;45383;-69
2022/09/28 11:32:08;;;;;;;;;4.00;2.00;;;;;19.39;40.97;99603.72;5019327;28;48034;-70
2022/09/28 11:34:43;;;;;;;;;6.67;6.00;;;;;19.52;39.88;99619.72;5044341;28;45511;-69
2022/09/28 11:37:30;;;;;;;;;8.33;4.00;;;;;19.63;40.10;99629.75;5037249;28;45305;-69
2022/09/28 11:40:17;;;;;;;;;2.00;2.00;;;;;19.67;40.19;99622.84;5037153;28;45493;-70
2022/09/28 11:43:06;;;;;;;;;6.00;4.67;;;;;19.58;39.88;99626.91;5036825;28;47960;-69
2022/09/28 11:45:47;;;;;;;;;2.33;2.33;;;;;19.62;39.06;99624.56;5035938;28;46116;-69
2022/09/28 11:48:17;;;;;;;;;2.33;2.33;;;;;19.61;39.34;99621.03;5036828;28;45274;-69
2022/09/28 11:50:51;;;;;;;;;1.67;1.67;;;;;19.58;39.34;99624.19;5037002;28;45619;-70
2022/09/28 11:53:41;;;;;;;;;2.33;2.00;;;;;19.53;39.43;99623.22;5041971;28;47371;-69
2022/09/28 11:56:27;;;;;;;;;1.00;1.00;;;;;19.37;39.91;99601.25;5036091;28;45433;-70